Terminal Aerodrome Forecast
Issued by NWS Goodland, KS

Home | Current Version | Previous Version | Text Only | Print | Product List | Glossary On
Versions: 1 2 3 4 5 6 7 8 9 10 11 12 13
000
FTUS43 KGLD 281721
TAFGLD
TAF
KGLD 281721Z 2818/2918 33011G18KT P6SM SKC
     FM282300 01013G20KT P6SM SKC
     FM290100 03010KT P6SM SKC
     FM290200 VRB03KT P6SM SKC=

USA.gov is the U.S. government's official web portal to all federal, state and local government web resources and services.